Time;durP1;ratioP1;P1;durP2;ratioP2;P2;SDS_P1;SDS_P2;PMS_P1;PMS_P2;Temp;Humidity;BMP_temperature;BMP_pressure;BME280_temperature;BME280_humidity;BME280_pressure;Samples;Min_cycle;Max_cycle;Signal;HPM_P1;HPM_P2
2021/06/01 00:01:58;;;;;;;7.00;3.75;;;12.50;99.90;;;;;;4324109;32;20069;-73
2021/06/01 00:04:24;;;;;;;5.95;3.87;;;12.50;99.90;;;;;;4340196;32;20082;-72
2021/06/01 00:06:50;;;;;;;4.57;3.20;;;12.50;99.90;;;;;;4359227;32;20117;-73
2021/06/01 00:09:19;;;;;;;5.90;3.53;;;12.50;99.90;;;;;;4335273;32;20078;-73
2021/06/01 00:11:46;;;;;;;6.15;4.05;;;12.50;99.90;;;;;;4348481;32;20074;-72
2021/06/01 00:14:12;;;;;;;5.32;3.42;;;12.50;99.90;;;;;;4348651;32;20074;-72
2021/06/01 00:16:39;;;;;;;6.50;3.53;;;12.50;99.90;;;;;;4348499;32;20101;-72
2021/06/01 00:19:07;;;;;;;5.18;3.47;;;12.50;99.90;;;;;;4335656;32;20569;-72
2021/06/01 00:21:36;;;;;;;4.50;2.92;;;12.60;99.90;;;;;;4314779;32;20093;-72
2021/06/01 00:24:04;;;;;;;5.60;3.30;;;12.70;99.90;;;;;;4341583;32;20113;-72
2021/06/01 00:26:31;;;;;;;5.05;3.45;;;12.60;99.90;;;;;;4332659;32;20081;-72
2021/06/01 00:28:57;;;;;;;4.65;2.92;;;12.60;99.90;;;;;;4334637;32;20155;-72
2021/06/01 00:31:23;;;;;;;5.15;3.50;;;12.60;99.90;;;;;;4316037;32;20121;-72
2021/06/01 00:33:49;;;;;;;5.70;3.70;;;12.60;99.90;;;;;;4323352;32;20075;-72
2021/06/01 00:36:15;;;;;;;6.45;3.75;;;12.60;99.90;;;;;;4330535;32;20070;-73
2021/06/01 00:38:41;;;;;;;5.75;3.83;;;12.60;99.90;;;;;;4347742;32;20071;-72
2021/06/01 00:41:07;;;;;;;6.43;3.28;;;12.60;99.90;;;;;;4324855;33;20074;-72
2021/06/01 00:43:34;;;;;;;6.60;3.47;;;12.70;99.90;;;;;;4310826;33;20540;-72
2021/06/01 00:46:00;;;;;;;5.82;3.70;;;12.60;99.90;;;;;;4308876;33;20094;-72
2021/06/01 00:48:26;;;;;;;6.72;3.92;;;12.60;99.90;;;;;;4341748;33;20155;-72
2021/06/01 00:50:53;;;;;;;7.70;4.05;;;12.60;99.90;;;;;;4324081;32;20494;-72
2021/06/01 00:53:19;;;;;;;7.10;3.95;;;12.60;99.90;;;;;;4331878;33;20075;-72
2021/06/01 00:55:45;;;;;;;5.50;3.60;;;12.60;99.90;;;;;;4327426;32;20544;-72
2021/06/01 01:03:18;;;;;;;7.95;4.30;;;12.60;99.90;;;;;;4381435;32;20567;-71
2021/06/01 01:05:48;;;;;;;5.55;4.03;;;12.60;99.90;;;;;;4360816;32;20488;-72
2021/06/01 01:08:46;;;;;;;7.15;3.90;;;12.70;99.90;;;;;;4375839;32;20442;-72
2021/06/01 01:11:55;;;;;;;7.87;4.28;;;12.70;99.90;;;;;;4369034;32;20092;-73
2021/06/01 01:14:34;;;;;;;5.87;3.60;;;12.60;99.90;;;;;;4379220;32;20145;-73
2021/06/01 01:17:07;;;;;;;5.28;3.37;;;12.60;99.90;;;;;;4380554;32;20101;-73
2021/06/01 01:19:51;;;;;;;5.28;3.62;;;12.60;99.90;;;;;;4390982;32;20433;-72
2021/06/01 01:22:17;;;;;;;6.18;3.67;;;12.60;99.90;;;;;;4397570;32;20089;-70
2021/06/01 01:24:51;;;;;;;5.82;4.07;;;12.60;99.90;;;;;;4377376;32;20073;-71
2021/06/01 01:27:27;;;;;;;5.05;3.58;;;12.60;99.90;;;;;;4403843;32;20095;-72
2021/06/01 01:29:53;;;;;;;;;;;12.80;99.90;;;;;;4383471;32;20062;-72
2021/06/01 01:32:51;;;;;;;6.50;4.53;;;12.90;99.90;;;;;;4377795;32;19969;-72
2021/06/01 01:35:17;;;;;;;8.68;4.93;;;12.70;99.90;;;;;;4370273;32;20078;-73
2021/06/01 01:37:44;;;;;;;7.97;3.95;;;12.80;99.90;;;;;;4385527;32;20074;-72
2021/06/01 01:40:10;;;;;;;5.75;3.90;;;12.80;99.90;;;;;;4372859;32;20054;-72
2021/06/01 01:42:46;;;;;;;7.53;4.45;;;12.90;99.90;;;;;;4373951;32;20499;-72
2021/06/01 01:45:33;;;;;;;5.87;4.20;;;12.70;99.90;;;;;;4352582;32;20066;-72
2021/06/01 01:50:45;;;;;;;5.90;3.92;;;12.90;99.90;;;;;;4389888;32;19971;-72
2021/06/01 01:53:17;;;;;;;6.90;3.95;;;12.90;99.90;;;;;;4375345;32;20144;-71
2021/06/01 01:55:46;;;;;;;7.05;4.12;;;13.10;99.90;;;;;;4366938;32;20105;-72
2021/06/01 01:58:14;;;;;;;5.75;4.15;;;13.20;99.90;;;;;;4369108;32;20077;-72
2021/06/01 02:00:40;;;;;;;7.50;4.85;;;13.30;99.90;;;;;;4361666;32;20086;-71
2021/06/01 02:03:07;;;;;;;7.82;4.85;;;13.00;99.90;;;;;;4374277;32;20101;-72
2021/06/01 02:05:34;;;;;;;8.90;4.85;;;13.10;99.90;;;;;;4374847;32;20085;-72
2021/06/01 02:08:00;;;;;;;7.35;4.65;;;13.20;99.90;;;;;;4355527;32;20082;-72
2021/06/01 02:10:26;;;;;;;7.85;4.40;;;13.30;99.90;;;;;;4382770;32;20149;-73
2021/06/01 02:12:53;;;;;;;7.90;5.07;;;13.50;99.90;;;;;;4365128;32;20073;-73
2021/06/01 02:15:19;;;;;;;8.07;4.82;;;13.30;99.90;;;;;;4368136;32;20066;-73
2021/06/01 02:17:45;;;;;;;9.68;5.40;;;13.10;99.90;;;;;;4360006;32;20508;-72
2021/06/01 02:20:12;;;;;;;9.95;4.93;;;13.50;99.90;;;;;;4373328;32;20077;-73
2021/06/01 02:25:56;;;;;;;9.73;5.97;;;13.30;99.90;;;;;;4343751;32;20074;-72
2021/06/01 02:28:45;;;;;;;9.45;5.07;;;13.30;99.90;;;;;;4344404;32;20068;-73
2021/06/01 02:31:20;;;;;;;8.68;5.20;;;13.30;99.90;;;;;;4367762;32;20058;-73
2021/06/01 02:33:47;;;;;;;9.37;4.53;;;13.30;99.90;;;;;;4347909;32;20073;-71
2021/06/01 02:36:15;;;;;;;6.55;4.37;;;13.40;99.90;;;;;;4349020;32;20074;-72
2021/06/01 02:38:41;;;;;;;8.77;4.93;;;13.60;99.90;;;;;;4368782;32;20508;-71
2021/06/01 02:41:07;;;;;;;7.65;5.30;;;13.70;99.90;;;;;;4375708;32;20098;-72
2021/06/01 02:43:34;;;;;;;9.38;5.28;;;13.60;99.90;;;;;;4351258;32;20066;-72
2021/06/01 02:46:00;;;;;;;11.12;4.78;;;13.50;99.90;;;;;;4359700;32;20085;-72
2021/06/01 02:48:26;;;;;;;8.45;5.28;;;13.60;99.90;;;;;;4363589;32;20075;-71
2021/06/01 02:50:57;;;;;;;7.68;4.65;;;13.80;99.90;;;;;;4351044;32;20556;-72
2021/06/01 02:53:24;;;;;;;8.18;5.47;;;13.90;99.90;;;;;;4356488;32;20082;-72
2021/06/01 02:55:51;;;;;;;7.10;4.75;;;13.90;99.90;;;;;;4371413;32;20468;-73
2021/06/01 02:58:18;;;;;;;7.53;4.45;;;13.90;99.90;;;;;;4351893;32;20158;-73
2021/06/01 03:00:44;;;;;;;7.55;5.75;;;14.00;99.90;;;;;;4363867;32;20066;-72
2021/06/01 03:03:12;;;;;;;6.37;4.65;;;14.00;99.90;;;;;;4376020;32;20587;-75
2021/06/01 03:05:39;;;;;;;7.97;5.03;;;13.90;99.90;;;;;;4345822;32;20070;-72
2021/06/01 03:08:10;;;;;;;6.50;4.37;;;13.90;99.90;;;;;;4351436;32;20081;-73
2021/06/01 03:10:36;;;;;;;7.70;4.62;;;13.80;99.90;;;;;;4363798;32;20094;-72
2021/06/01 03:13:03;;;;;;;9.60;5.57;;;13.90;99.90;;;;;;4370796;32;20489;-72
2021/06/01 03:15:29;;;;;;;8.20;4.82;;;13.90;99.90;;;;;;4368911;32;20154;-72
2021/06/01 03:17:56;;;;;;;8.68;5.10;;;13.80;99.90;;;;;;4373693;32;20083;-73
2021/06/01 03:20:22;;;;;;;8.98;5.28;;;14.00;99.90;;;;;;4348644;32;20474;-72
2021/06/01 03:22:48;;;;;;;7.47;5.05;;;13.90;99.90;;;;;;4351081;32;20081;-72
2021/06/01 03:25:14;;;;;;;7.35;5.32;;;13.80;99.90;;;;;;4362973;32;20113;-72
2021/06/01 03:27:41;;;;;;;7.10;5.37;;;13.90;99.90;;;;;;4350785;32;20516;-72
2021/06/01 03:30:08;;;;;;;8.90;5.20;;;13.80;99.90;;;;;;4351812;32;20082;-73
2021/06/01 03:32:35;;;;;;;8.02;5.82;;;13.80;99.90;;;;;;4338975;32;20099;-72
2021/06/01 03:35:01;;;;;;;7.75;5.57;;;13.80;99.90;;;;;;4377358;32;20109;-72
2021/06/01 03:37:27;;;;;;;7.03;5.65;;;13.90;99.90;;;;;;4367843;32;20070;-72
2021/06/01 03:39:53;;;;;;;10.75;5.25;;;13.80;99.90;;;;;;4364720;32;20532;-72
2021/06/01 03:42:20;;;;;;;9.25;6.40;;;13.90;99.90;;;;;;4373566;32;20069;-72
2021/06/01 03:44:46;;;;;;;9.95;5.90;;;14.00;99.90;;;;;;4341433;32;20526;-73
2021/06/01 03:47:12;;;;;;;8.00;5.15;;;14.00;99.90;;;;;;4379909;32;20151;-72
2021/06/01 03:49:38;;;;;;;8.70;5.80;;;14.10;99.90;;;;;;4361407;32;20098;-73
2021/06/01 03:52:07;;;;;;;7.75;4.82;;;14.10;99.90;;;;;;4366976;32;20178;-72
2021/06/01 03:54:35;;;;;;;7.78;5.55;;;14.20;99.90;;;;;;4376639;32;20203;-72
2021/06/01 03:57:02;;;;;;;7.60;5.05;;;14.00;99.90;;;;;;4369701;32;20480;-72
2021/06/01 03:59:28;;;;;;;8.43;5.70;;;14.20;99.90;;;;;;4346054;32;20509;-72
2021/06/01 04:01:54;;;;;;;6.93;5.53;;;14.30;99.90;;;;;;4353937;32;20092;-72
2021/06/01 04:04:20;;;;;;;8.50;5.43;;;14.20;99.90;;;;;;4356190;32;20151;-72
2021/06/01 04:06:47;;;;;;;7.40;5.60;;;14.00;99.90;;;;;;4377132;32;20082;-73
2021/06/01 04:09:13;;;;;;;7.78;5.05;;;14.20;99.90;;;;;;4354401;32;20064;-72
2021/06/01 04:11:39;;;;;;;8.75;5.85;;;14.30;99.90;;;;;;4350231;32;20061;-73
2021/06/01 04:14:06;;;;;;;9.60;5.95;;;14.40;99.90;;;;;;4362288;32;20070;-73
2021/06/01 04:16:32;;;;;;;7.65;5.15;;;14.40;99.90;;;;;;4374342;32;20054;-73
2021/06/01 04:18:58;;;;;;;6.20;4.22;;;14.40;99.90;;;;;;4365182;32;20159;-72
2021/06/01 04:21:24;;;;;;;10.52;6.00;;;14.80;99.90;;;;;;4349673;32;20074;-72
2021/06/01 04:23:50;;;;;;;6.43;4.78;;;14.40;99.90;;;;;;4354454;32;20088;-73
2021/06/01 04:26:16;;;;;;;7.85;5.22;;;14.40;99.90;;;;;;4347612;32;20508;-73
2021/06/01 04:28:43;;;;;;;10.18;5.18;;;15.00;99.90;;;;;;4361639;32;20611;-72
2021/06/01 04:31:09;;;;;;;6.47;4.72;;;15.40;99.90;;;;;;4350369;32;20102;-72
2021/06/01 04:33:35;;;;;;;7.40;5.00;;;15.20;99.90;;;;;;4352783;32;20448;-72
2021/06/01 04:36:01;;;;;;;8.27;5.07;;;16.00;99.90;;;;;;4342738;32;20112;-72
2021/06/01 04:38:27;;;;;;;8.15;5.10;;;15.70;99.90;;;;;;4337275;32;20500;-73
2021/06/01 04:40:54;;;;;;;7.50;5.87;;;15.30;99.90;;;;;;4363303;32;20066;-72
2021/06/01 04:43:20;;;;;;;9.40;6.50;;;15.20;99.90;;;;;;4365078;32;20094;-72
2021/06/01 04:45:46;;;;;;;8.25;6.10;;;14.90;99.90;;;;;;4363209;32;20517;-73
2021/06/01 04:48:12;;;;;;;8.60;5.87;;;14.70;99.90;;;;;;4359543;32;20082;-72
2021/06/01 04:50:38;;;;;;;6.72;5.32;;;14.50;99.90;;;;;;4362144;32;20539;-73
2021/06/01 04:53:05;;;;;;;9.02;4.78;;;14.80;99.90;;;;;;4363918;32;20525;-74
2021/06/01 04:55:31;;;;;;;7.95;5.30;;;14.80;99.90;;;;;;4356026;32;20074;-72
2021/06/01 04:57:57;;;;;;;9.55;6.85;;;14.70;99.90;;;;;;4349121;32;20456;-73
2021/06/01 05:00:24;;;;;;;7.72;5.40;;;14.70;99.90;;;;;;4345297;32;20085;-73
2021/06/01 05:02:50;;;;;;;8.20;5.82;;;14.80;99.90;;;;;;4352159;32;20066;-71
2021/06/01 05:05:16;;;;;;;8.73;5.82;;;14.90;99.90;;;;;;4362359;32;20189;-72
2021/06/01 05:07:42;;;;;;;10.05;5.80;;;14.90;99.90;;;;;;4368152;32;20150;-73
2021/06/01 05:10:09;;;;;;;8.18;6.78;;;14.60;99.90;;;;;;4361939;32;20159;-75
2021/06/01 05:12:35;;;;;;;7.00;5.65;;;14.80;99.90;;;;;;4361398;32;20073;-75
2021/06/01 05:15:02;;;;;;;9.65;6.12;;;15.00;99.90;;;;;;4352286;32;20108;-73
2021/06/01 05:17:28;;;;;;;9.45;5.97;;;14.80;99.90;;;;;;4349599;32;20085;-73
2021/06/01 05:19:54;;;;;;;8.93;5.72;;;14.70;99.90;;;;;;4357163;32;21139;-72
2021/06/01 05:22:20;;;;;;;7.55;5.37;;;14.70;99.90;;;;;;4354154;32;20130;-71
2021/06/01 05:24:47;;;;;;;8.32;5.47;;;14.70;99.90;;;;;;4360073;32;20476;-74
2021/06/01 05:27:13;;;;;;;8.75;5.37;;;14.80;99.90;;;;;;4356311;32;20093;-77
2021/06/01 05:29:47;;;;;;;8.20;5.30;;;14.70;99.90;;;;;;4335499;32;20105;-73
2021/06/01 05:35:01;;;;;;;7.45;5.12;;;14.80;99.90;;;;;;4353253;32;20094;-74
2021/06/01 05:37:29;;;;;;;8.55;4.80;;;14.70;99.90;;;;;;4354874;32;20093;-75
2021/06/01 05:39:55;;;;;;;8.18;5.28;;;15.00;99.90;;;;;;4358890;32;20066;-77
2021/06/01 05:42:21;;;;;;;6.68;4.05;;;15.10;99.90;;;;;;4360094;32;20515;-78
2021/06/01 05:44:47;;;;;;;9.32;4.50;;;15.20;99.90;;;;;;4347600;32;20105;-72
2021/06/01 05:47:15;;;;;;;8.20;5.32;;;15.40;99.90;;;;;;4373688;32;20058;-72
2021/06/01 05:49:41;;;;;;;9.60;4.95;;;15.70;99.90;;;;;;4370120;32;20062;-77
2021/06/01 05:52:08;;;;;;;10.30;5.65;;;15.80;99.90;;;;;;4363932;32;20444;-76
2021/06/01 05:54:34;;;;;;;7.10;4.80;;;15.80;99.90;;;;;;4351788;32;20658;-73
2021/06/01 05:57:00;;;;;;;6.68;3.28;;;16.10;99.90;;;;;;4363897;32;20220;-74
2021/06/01 05:59:27;;;;;;;8.60;4.72;;;16.70;99.90;;;;;;4354793;32;20190;-75
2021/06/01 06:01:53;;;;;;;6.40;4.55;;;16.70;99.90;;;;;;4356783;32;20090;-74
2021/06/01 06:04:19;;;;;;;6.37;4.55;;;16.30;99.90;;;;;;4377068;32;20070;-75
2021/06/01 06:06:46;;;;;;;6.05;3.90;;;16.00;99.90;;;;;;4349560;32;20073;-76
2021/06/01 06:09:13;;;;;;;6.55;3.75;;;16.80;99.90;;;;;;4360778;32;20521;-76
2021/06/01 06:11:39;;;;;;;8.73;4.85;;;16.90;99.90;;;;;;4360737;32;20077;-71
2021/06/01 06:14:05;;;;;;;6.12;4.57;;;16.40;99.90;;;;;;4355224;32;20085;-73
2021/06/01 06:16:40;;;;;;;7.93;4.70;;;16.30;99.90;;;;;;4350847;32;20101;-73
2021/06/01 06:19:06;;;;;;;5.80;4.15;;;16.50;99.90;;;;;;4352418;32;20094;-74
2021/06/01 06:21:33;;;;;;;6.65;4.95;;;16.50;99.90;;;;;;4369603;32;20501;-72
2021/06/01 06:23:59;;;;;;;6.18;4.47;;;16.50;99.90;;;;;;4369406;32;20133;-72
2021/06/01 06:26:25;;;;;;;6.45;4.20;;;16.50;99.90;;;;;;4356937;32;20515;-70
2021/06/01 06:28:51;;;;;;;5.75;4.35;;;16.40;99.90;;;;;;4359883;32;20074;-70
2021/06/01 06:31:19;;;;;;;5.75;3.75;;;16.80;99.90;;;;;;4378041;32;20293;-71
2021/06/01 06:33:45;;;;;;;6.62;3.87;;;17.20;99.90;;;;;;4352625;32;20058;-74
2021/06/01 06:36:11;;;;;;;7.28;4.25;;;17.80;99.90;;;;;;4349963;32;20081;-72
2021/06/01 06:38:37;;;;;;;5.62;4.40;;;17.10;99.90;;;;;;4345752;32;20066;-72
2021/06/01 06:43:36;;;;;;;6.37;3.78;;;17.00;99.90;;;;;;4347073;32;20407;-70
2021/06/01 06:46:07;;;;;;;6.95;4.00;;;16.90;99.90;;;;;;4356318;32;20085;-76
2021/06/01 06:48:33;;;;;;;8.82;3.45;;;16.80;99.90;;;;;;4347759;32;20089;-74
2021/06/01 06:51:12;;;;;;;6.18;4.68;;;17.90;99.90;;;;;;4367702;32;20092;-74
2021/06/01 06:53:53;;;;;;;6.03;4.03;;;16.80;99.90;;;;;;4351067;32;20130;-72
2021/06/01 06:56:21;;;;;;;6.35;4.10;;;17.50;99.90;;;;;;4366015;32;20077;-76
2021/06/01 06:58:47;;;;;;;7.87;4.68;;;17.30;99.90;;;;;;4354308;32;20113;-74
2021/06/01 07:01:14;;;;;;;4.87;3.90;;;16.80;99.90;;;;;;4359719;32;20097;-75
2021/06/01 07:03:40;;;;;;;6.30;4.07;;;17.30;99.90;;;;;;4351405;32;20116;-73
2021/06/01 07:06:07;;;;;;;5.97;3.90;;;16.90;99.90;;;;;;4375789;32;20551;-76
2021/06/01 07:08:33;;;;;;;8.00;4.87;;;17.50;99.90;;;;;;4341604;32;20579;-74
2021/06/01 07:11:00;;;;;;;8.25;3.80;;;17.10;99.90;;;;;;4357572;32;20106;-74
2021/06/01 07:13:36;;;;;;;9.75;4.80;;;17.50;99.90;;;;;;4346960;32;20082;-74
2021/06/01 07:16:03;;;;;;;8.90;4.87;;;17.50;99.90;;;;;;4339323;32;20154;-77
2021/06/01 07:18:31;;;;;;;8.27;4.22;;;17.20;99.90;;;;;;4361176;32;20058;-78
2021/06/01 07:21:00;;;;;;;6.57;4.80;;;17.60;99.90;;;;;;4334272;32;20054;-73
2021/06/01 07:23:27;;;;;;;7.20;4.25;;;17.20;99.90;;;;;;4359370;32;20124;-75
2021/06/01 07:25:53;;;;;;;7.22;4.32;;;17.40;99.90;;;;;;4357958;32;20542;-76
2021/06/01 07:28:20;;;;;;;7.03;4.72;;;17.70;99.90;;;;;;4362904;32;20173;-78
2021/06/01 07:30:46;;;;;;;7.97;4.37;;;17.60;99.90;;;;;;4348693;32;20078;-78
2021/06/01 07:33:13;;;;;;;6.72;4.30;;;18.10;99.90;;;;;;4354962;32;20500;-77
2021/06/01 07:35:40;;;;;;;8.95;4.53;;;17.80;99.90;;;;;;4375311;32;20146;-77
2021/06/01 07:38:10;;;;;;;7.68;4.55;;;17.70;99.90;;;;;;4365185;32;20456;-75
2021/06/01 07:40:39;;;;;;;5.80;3.45;;;17.80;99.90;;;;;;4374033;32;20078;-76
2021/06/01 07:43:07;;;;;;;5.43;4.00;;;18.40;99.90;;;;;;4345637;32;20092;-77
2021/06/01 07:45:35;;;;;;;5.50;3.58;;;18.40;99.90;;;;;;4335386;32;20057;-75
2021/06/01 07:48:01;;;;;;;6.62;4.15;;;19.40;99.90;;;;;;4361162;32;20109;-79
2021/06/01 07:50:27;;;;;;;6.37;4.32;;;18.70;99.90;;;;;;4375383;32;20082;-77
2021/06/01 07:52:54;;;;;;;6.43;4.15;;;18.00;99.90;;;;;;4349631;32;20163;-76
2021/06/01 07:55:20;;;;;;;7.97;4.50;;;18.20;99.90;;;;;;4367289;32;20074;-75
2021/06/01 07:57:46;;;;;;;5.07;3.95;;;18.40;99.90;;;;;;4335759;32;20077;-72
2021/06/01 08:00:13;;;;;;;5.12;4.03;;;18.30;99.90;;;;;;4349801;32;20101;-75
2021/06/01 08:02:40;;;;;;;4.97;3.42;;;18.70;99.90;;;;;;4351612;32;20158;-76
2021/06/01 08:05:08;;;;;;;7.45;4.03;;;18.70;99.90;;;;;;4361223;32;20069;-76
2021/06/01 08:07:34;;;;;;;6.22;4.03;;;18.70;99.90;;;;;;4374730;32;20122;-74
2021/06/01 08:10:05;;;;;;;4.60;3.40;;;18.30;99.90;;;;;;4360787;32;20142;-74
2021/06/01 08:12:31;;;;;;;4.55;3.37;;;18.70;99.90;;;;;;4372432;32;20101;-76
2021/06/01 08:14:58;;;;;;;4.90;3.50;;;19.00;99.90;;;;;;4343022;32;20069;-75
2021/06/01 08:17:25;;;;;;;5.35;3.80;;;18.90;99.90;;;;;;4349274;32;20106;-75
2021/06/01 08:19:53;;;;;;;5.68;3.62;;;19.10;99.90;;;;;;4370276;32;20563;-82
2021/06/01 08:24:49;;;;;;;5.40;3.58;;;19.00;99.90;;;;;;4368831;32;20074;-76
2021/06/01 08:27:16;;;;;;;3.85;2.90;;;18.80;99.90;;;;;;4359911;32;20098;-79
2021/06/01 08:29:43;;;;;;;1.70;1.50;;;19.50;99.90;;;;;;4360003;32;20132;-70
2021/06/01 08:32:09;;;;;;;5.20;3.70;;;19.50;99.90;;;;;;4342135;32;20073;-66
2021/06/01 08:34:36;;;;;;;4.15;3.00;;;19.40;99.90;;;;;;4372983;32;20112;-73
2021/06/01 08:37:02;;;;;;;4.90;3.53;;;19.20;99.90;;;;;;4370760;32;20544;-71
2021/06/01 08:39:28;;;;;;;6.37;3.85;;;19.60;99.90;;;;;;4360146;32;20078;-71
2021/06/01 08:41:56;;;;;;;4.70;3.58;;;19.20;99.90;;;;;;4347163;32;20094;-68
2021/06/01 08:44:24;;;;;;;8.13;4.03;;;19.40;99.90;;;;;;4351841;32;20156;-70
2021/06/01 08:46:51;;;;;;;5.78;3.60;;;19.90;99.90;;;;;;4345842;32;20097;-74
2021/06/01 08:49:18;;;;;;;4.78;3.65;;;19.50;99.90;;;;;;4351903;32;20093;-73
2021/06/01 08:51:45;;;;;;;6.30;3.42;;;19.50;99.90;;;;;;4353149;32;20160;-72
2021/06/01 08:54:11;;;;;;;4.72;3.40;;;20.00;99.90;;;;;;4356901;32;20104;-67
2021/06/01 08:56:38;;;;;;;6.68;4.07;;;19.50;99.90;;;;;;4369366;32;20438;-74
2021/06/01 08:59:04;;;;;;;5.65;3.62;;;19.70;99.90;;;;;;4360134;32;20154;-68
2021/06/01 09:01:32;;;;;;;9.10;3.87;;;19.70;99.90;;;;;;4345495;32;20524;-73
2021/06/01 09:04:00;;;;;;;5.50;3.35;;;19.70;99.90;;;;;;4379257;32;20158;-71
2021/06/01 09:06:46;;;;;;;5.20;3.75;;;19.90;99.90;;;;;;4350332;32;20058;-71
2021/06/01 09:22:30;;;;;;;5.45;4.10;;;20.40;99.90;;;;;;4384207;32;20074;-75
2021/06/01 09:25:09;;;;;;;8.77;4.50;;;20.40;99.90;;;;;;4363589;32;20118;-69
2021/06/01 09:27:52;;;;;;;5.70;4.00;;;21.20;99.90;;;;;;4357162;32;20101;-74
2021/06/01 09:30:58;;;;;;;5.97;4.00;;;20.50;99.90;;;;;;4347842;32;20105;-75
2021/06/01 09:33:29;;;;;;;5.50;4.12;;;20.60;99.90;;;;;;4329758;32;20658;-73
2021/06/01 09:36:13;;;;;;;6.22;3.67;;;19.90;99.90;;;;;;4341587;32;20090;-75
2021/06/01 09:38:44;;;;;;;5.68;3.65;;;20.50;99.90;;;;;;4382317;32;20090;-75
2021/06/01 09:41:18;;;;;;;4.90;3.83;;;21.10;99.90;;;;;;4340081;32;20069;-74
2021/06/01 09:43:59;;;;;;;5.82;3.90;;;20.70;99.90;;;;;;4352675;32;20105;-69
2021/06/01 09:46:30;;;;;;;7.37;4.15;;;21.00;99.90;;;;;;4340542;32;20101;-72
2021/06/01 09:49:15;;;;;;;6.32;3.78;;;21.10;99.90;;;;;;4338404;32;20531;-75
2021/06/01 09:51:49;;;;;;;6.40;3.80;;;20.80;99.90;;;;;;4382038;32;20130;-77
2021/06/01 09:54:34;;;;;;;5.15;3.50;;;21.10;99.90;;;;;;4343310;32;20079;-72
2021/06/01 09:57:03;;;;;;;7.40;3.60;;;21.50;99.90;;;;;;4355608;32;20898;-72
2021/06/01 09:59:29;;;;;;;4.25;3.25;;;21.20;99.90;;;;;;4358647;32;20440;-75
2021/06/01 10:01:55;;;;;;;6.37;3.42;;;21.20;99.90;;;;;;4358370;32;20093;-71
2021/06/01 10:04:26;;;;;;;6.95;3.87;;;21.10;99.90;;;;;;4359821;32;20062;-73
2021/06/01 10:06:53;;;;;;;5.97;3.47;;;20.70;99.90;;;;;;4364111;32;20210;-77
2021/06/01 10:09:19;;;;;;;6.37;3.60;;;21.20;99.90;;;;;;4362444;32;20612;-72
2021/06/01 10:11:56;;;;;;;9.30;3.80;;;21.20;99.90;;;;;;4334724;32;20100;-68
2021/06/01 10:14:24;;;;;;;4.18;3.20;;;21.20;99.90;;;;;;4351361;32;20097;-73
2021/06/01 10:16:52;;;;;;;7.50;3.75;;;20.90;99.90;;;;;;4333772;32;20066;-72
2021/06/01 10:19:18;;;;;;;5.25;3.33;;;21.20;99.90;;;;;;4373590;32;20193;-77
2021/06/01 10:21:45;;;;;;;4.62;3.80;;;21.40;99.90;;;;;;4355625;32;20090;-75
2021/06/01 10:24:14;;;;;;;6.15;3.80;;;20.90;99.90;;;;;;4357835;32;20477;-76
2021/06/01 10:26:43;;;;;;;5.45;3.50;;;20.80;99.90;;;;;;4349250;32;20573;-78
2021/06/01 10:29:10;;;;;;;5.62;3.90;;;20.70;99.90;;;;;;4358095;32;20098;-70
2021/06/01 10:31:37;;;;;;;6.43;3.50;;;20.60;99.90;;;;;;4359702;32;20090;-71
2021/06/01 10:34:04;;;;;;;8.32;4.43;;;21.20;99.90;;;;;;4380352;32;20090;-70
2021/06/01 10:49:41;;;;;;;6.70;3.35;;;21.10;99.90;;;;;;4365361;32;20122;-76
2021/06/01 10:51:05;;;;;;;5.75;3.45;;;21.20;99.90;;;;;;4358195;32;20085;-70
2021/06/01 10:53:41;;;;;;;5.57;2.87;;;21.10;99.90;;;;;;4346024;32;20471;-69
2021/06/01 10:56:11;;;;;;;6.78;3.30;;;21.00;99.90;;;;;;4370370;32;20090;-69
2021/06/01 10:58:39;;;;;;;9.80;3.60;;;21.10;99.90;;;;;;4358941;32;20190;-68
2021/06/01 11:04:30;;;;;;;5.68;3.30;;;21.40;99.90;;;;;;4370186;32;20062;-72
2021/06/01 11:09:34;;;;;;;4.30;2.83;;;21.50;99.90;;;;;;4366822;32;20251;-66
2021/06/01 11:12:17;;;;;;;5.37;3.08;;;21.20;99.90;;;;;;4358496;32;20082;-67
2021/06/01 11:14:48;;;;;;;5.72;3.00;;;21.10;99.90;;;;;;4381706;32;20094;-72
2021/06/01 11:17:15;;;;;;;4.43;3.08;;;21.20;99.90;;;;;;4351611;32;20090;-70
2021/06/01 11:19:57;;;;;;;5.57;3.30;;;21.10;99.90;;;;;;4350221;32;20072;-69
2021/06/01 11:22:37;;;;;;;6.90;3.10;;;21.20;99.90;;;;;;4347741;32;20499;-70
2021/06/01 11:33:35;;;;;;;5.47;3.10;;;21.00;99.90;;;;;;4357973;32;20069;-66
2021/06/01 11:36:03;;;;;;;4.95;2.62;;;21.20;99.90;;;;;;4372584;32;20098;-68
2021/06/01 11:38:47;;;;;;;4.35;2.47;;;21.00;99.90;;;;;;4373119;32;20102;-66
2021/06/01 11:42:47;;;;;;;4.25;2.65;;;21.30;99.90;;;;;;4375755;32;20085;-65
2021/06/01 11:44:23;;;;;;;5.47;2.75;;;21.40;99.90;;;;;;4356783;32;20546;-69
2021/06/01 11:47:12;;;;;;;7.07;2.60;;;21.10;99.90;;;;;;4373007;32;20073;-67
2021/06/01 11:52:27;;;;;;;5.30;2.47;;;20.90;99.90;;;;;;4366020;32;20511;-69
2021/06/01 11:54:53;;;;;;;4.37;2.67;;;21.10;99.90;;;;;;4363358;32;20070;-66
2021/06/01 11:57:36;;;;;;;8.15;2.60;;;20.90;99.90;;;;;;4377905;32;20170;-63
2021/06/01 12:12:11;;;;;;;4.60;2.60;;;21.10;99.90;;;;;;4352415;32;20145;-64
2021/06/01 12:17:49;;;;;;;2.90;2.30;;;21.00;99.90;;;;;;4356082;32;20088;-62
2021/06/01 12:20:15;;;;;;;3.15;2.55;;;21.10;99.90;;;;;;4349706;32;20069;-63
2021/06/01 12:22:41;;;;;;;3.70;2.72;;;20.90;99.90;;;;;;4364293;32;20487;-63
2021/06/01 12:25:10;;;;;;;3.78;2.45;;;21.30;99.90;;;;;;4362206;32;20085;-63
2021/06/01 12:28:19;;;;;;;4.95;2.60;;;21.20;99.90;;;;;;4350404;32;20097;-63
2021/06/01 12:30:59;;;;;;;7.07;3.45;;;21.00;99.90;;;;;;4360036;32;20065;-66
2021/06/01 12:33:25;;;;;;;2.55;2.12;;;21.10;99.90;;;;;;4376818;32;20088;-63
2021/06/01 12:42:03;;;;;;;4.37;2.28;;;21.50;99.90;;;;;;4346332;32;20069;-64
2021/06/01 12:44:39;;;;;;;5.47;2.80;;;21.40;99.90;;;;;;4349358;32;20134;-64
2021/06/01 13:19:39;;;;;;;3.85;2.50;;;21.30;99.90;;;;;;4367084;32;20086;-65
2021/06/01 13:39:25;;;;;;;9.50;2.42;;;21.50;99.90;;;;;;4363410;32;20106;-77
2021/06/01 13:47:23;;;;;;;4.65;2.35;;;21.30;99.90;;;;;;4363855;32;20142;-66
2021/06/01 13:49:53;;;;;;;8.25;2.72;;;21.30;99.90;;;;;;4359196;32;20058;-66
2021/06/01 13:57:59;;;;;;;4.55;2.95;;;21.20;99.90;;;;;;4373084;32;20150;-73
2021/06/01 14:00:35;;;;;;;3.12;2.30;;;21.40;99.90;;;;;;4355396;32;20169;-65
2021/06/01 14:15:18;;;;;;;5.28;2.80;;;21.10;99.90;;;;;;4370895;32;20648;-68
2021/06/01 14:20:05;;;;;;;4.10;2.78;;;21.00;99.90;;;;;;4374981;32;20535;-66
2021/06/01 14:30:55;;;;;;;5.15;3.00;;;20.90;99.90;;;;;;4373772;32;20449;-63
2021/06/01 14:36:26;;;;;;;4.55;2.65;;;20.90;99.90;;;;;;4350795;32;20172;-63
2021/06/01 15:09:47;;;;;;;7.65;3.22;;;20.40;99.90;;;;;;4375407;32;20155;-72
2021/06/01 15:47:48;;;;;;;6.80;3.87;;;19.80;99.90;;;;;;4324794;32;20079;-78
2021/06/01 15:50:37;;;;;;;6.72;3.60;;;19.70;99.90;;;;;;4374427;32;20581;-79
2021/06/01 17:04:54;;;;;;;4.53;2.90;;;18.90;99.90;;;;;;4360259;32;20153;-78
2021/06/01 17:13:04;;;;;;;3.70;2.60;;;18.70;99.90;;;;;;4349091;32;20102;-78
2021/06/01 17:15:31;;;;;;;4.35;2.40;;;18.70;99.90;;;;;;4345015;32;20517;-79
2021/06/01 17:18:06;;;;;;;4.32;2.58;;;18.60;99.90;;;;;;4367833;32;20129;-77
2021/06/01 17:20:57;;;;;;;3.53;2.50;;;18.60;99.90;;;;;;4340130;32;20078;-77
2021/06/01 17:36:34;;;;;;;9.23;3.92;;;18.40;99.90;;;;;;4354544;32;20489;-78
2021/06/01 17:39:00;;;;;;;9.18;3.45;;;18.30;99.90;;;;;;4348890;32;20082;-80
2021/06/01 17:41:29;;;;;;;2.85;2.30;;;18.30;99.90;;;;;;4369796;32;20106;-78
2021/06/01 17:44:00;;;;;;;7.75;3.12;;;18.30;99.90;;;;;;4337875;32;20186;-80
2021/06/01 17:46:27;;;;;;;8.82;3.10;;;18.20;99.90;;;;;;4366739;32;20161;-77
2021/06/01 17:48:56;;;;;;;4.50;2.58;;;18.20;99.90;;;;;;4351442;32;20082;-75
2021/06/01 17:51:27;;;;;;;6.37;2.78;;;18.10;99.90;;;;;;4362729;32;20070;-78
2021/06/01 17:53:55;;;;;;;4.68;2.70;;;18.10;99.90;;;;;;4357153;32;20085;-78
2021/06/01 17:56:24;;;;;;;4.40;2.95;;;18.00;99.90;;;;;;4358125;32;20078;-77
2021/06/01 17:58:51;;;;;;;4.15;2.45;;;18.00;99.90;;;;;;4352395;32;20218;-79
2021/06/01 18:01:23;;;;;;;6.53;3.78;;;17.90;99.90;;;;;;4368275;32;20074;-78
2021/06/01 18:03:56;;;;;;;5.07;2.97;;;17.90;99.90;;;;;;4352848;32;20074;-76
2021/06/01 18:06:31;;;;;;;4.62;2.78;;;18.00;99.90;;;;;;4353443;32;20169;-76
2021/06/01 18:29:23;;;;;;;10.02;2.85;;;17.90;99.90;;;;;;4352051;32;20230;-78
2021/06/01 18:37:32;;;;;;;2.90;2.40;;;18.00;99.90;;;;;;4327163;33;20544;-77
2021/06/01 19:02:08;;;;;;;4.55;2.70;;;18.10;99.90;;;;;;4369475;32;20063;-78
2021/06/01 19:51:00;;;;;;;5.62;2.15;;;17.10;99.90;;;;;;4364681;32;20065;-76
2021/06/01 19:53:26;;;;;;;5.05;2.22;;;17.10;99.90;;;;;;4371564;32;20067;-77
2021/06/01 19:55:53;;;;;;;4.03;2.55;;;17.00;99.90;;;;;;4357027;32;20113;-76
2021/06/01 19:58:19;;;;;;;3.12;1.92;;;17.00;99.90;;;;;;4365694;32;20110;-76
2021/06/01 20:00:45;;;;;;;2.30;2.00;;;16.90;99.90;;;;;;4351404;32;20102;-76